Current Conditions

Updated: 29-Aug-2016 12:48 PM  
Summary / Temperature Wind Rain






Feels like: 91°F

1-hour difference
4.1°F 4.1°F warmer than last hour.

24-hour difference
3.5°F3.5°F warmer than yesterday at this time.

  Today Yesterday
High: 91.5°F
12:47 PM
95.4°F
3:21 PM
Low: 65.4°F
6:11 AM
62.5°F
6:28 AM
Wind from NNW NNW
1.2
Gust:  0.0 mph
0 Beaufort - Light Air

Today: 5.0 - 11:46 AM
Month: 10.0 mph - Aug 21
Rain Today: 0.00 in
Current Rate (/hr): 0.000 in
Max Rate (/hr):
Rain Yesterday: 0.00 in
Storm Rain: 0.00 in
This Month: 0.00 in
Season Total: 0.00 in
Last Rain Event: 78 days ago
Humidity / Barometer Sun / Moon
Humidity: 35 Decreased 8.0% in the last hour.
Dew Point: 60.0°F Decreased 2.2°F in the last hour.
Barometer: 29.949 inHg  
Baro Trend: Steady
Sunrise: 6:26 AM
Sunset: 7:28 PM
Moonrise: 3:44 AM
Moonset: 4:56 PM
Sky Conditions UV Index
Summary: Clear
Visibility: 10 miles
Clouds: None
KPTV - 11:56 AM PDT
Current: 10.0  Very High 
Monday: 8.9  Very High 
Tuesday: 8.8  Very High 
Air Quality Fire Danger
 Moderate 
Ozone 51 ppb
PM 2.5 20 μg/m3
12:40 PM PDT
Current: 46  Low 

Local Alerts Local Forecast
Local NWS Alerts
Today

Areas of
Smoke
High 97
Tonight

Areas of
Smoke
Low 63
Tue

Sunny

High 95
Tue night

Mostly
Clear
Low 63
Wed

Mostly
Sunny
High 93
Wed night

Clear

Low 61
Thu

Sunny

High 93

Local Radar Local Satellite Neighborhood Cam Sky Cam
Local Radar Local Satellite Neighborhood Cam Sky Cam


Nearby Personal Stations

Weather Underground PWS KCAPORTE11 Weather Underground PWS KCAPORTE5 Weather Underground PWS KCAPORTE8

Nearby Airport Stations

KPTV - Porterville, California, USA
Distance from station: SSW 4mi, 7km
Updated: Mon, 29-Aug-2016 11:56am PDT
Clear
Clear
 Wind from W
Wind: W 8 mph , 13 km/h
Temperature: 88°F , 31°C
Dew Point: 57°F , 14°C
Humidity: 35%
Barometer: 30.02 inHg , 1016.6 hPa
Clouds: Clear
Visibility: 10 miles , 16 km
2016/08/29 18:56 KPTV 291856Z AUTO 27007KT 10SM CLR 31/14 A3002 RMK AO2 SLP170 T03110144
KVIS - Visalia, California, USA
Distance from station: NW 27mi, 43km
Updated: Mon, 29-Aug-2016 11:56am PDT
Clear
Clear
 Wind from varies
Wind: varies 6 mph , 9 km/h
Temperature: 84°F , 29°C
Heat Index: 84°F , 29°C
Dew Point: 61°F , 16°C
Humidity: 45%
Barometer: 30.02 inHg , 1016.6 hPa
Clouds: Clear
Visibility: 10 miles , 16 km
2016/08/29 18:56 KVIS 291856Z AUTO VRB05KT 10SM CLR 29/16 A3002 RMK AO2 SLP170 T02940161

Metar display script from Saratoga-Weather.org



Visitor Map